createdAt,value
2018-01-15T00:01:08.283Z,91.20
2018-01-15T00:03:35.728Z,91.47
2018-01-15T00:06:03.196Z,95.25
2018-01-15T00:08:30.648Z,87.70
2018-01-15T00:10:58.101Z,84.70
2018-01-15T00:13:25.592Z,94.07
2018-01-15T00:15:53.070Z,94.55
2018-01-15T00:18:20.513Z,88.00
2018-01-15T00:20:48.011Z,81.80
2018-01-15T00:23:15.496Z,91.00
2018-01-15T00:25:42.971Z,89.85
2018-01-15T00:28:10.478Z,86.15
2018-01-15T00:30:37.968Z,84.95
2018-01-15T00:33:05.422Z,81.45
2018-01-15T00:35:32.903Z,85.25
2018-01-15T00:38:00.355Z,81.57
2018-01-15T00:40:27.867Z,80.97
2018-01-15T00:42:55.323Z,75.85
2018-01-15T00:45:22.792Z,79.47
2018-01-15T00:47:50.236Z,76.90
2018-01-15T00:50:17.704Z,90.50
2018-01-15T00:52:45.165Z,73.45
2018-01-15T00:55:12.623Z,87.97
2018-01-15T00:57:40.098Z,66.47
2018-01-15T01:00:07.539Z,91.03
2018-01-15T01:02:35.003Z,77.45
2018-01-15T01:05:02.484Z,93.53
2018-01-15T01:07:29.932Z,79.72
2018-01-15T01:09:57.384Z,77.30
2018-01-15T01:12:24.906Z,90.47
2018-01-15T01:14:52.379Z,77.55
2018-01-15T01:17:19.823Z,80.38
2018-01-15T01:19:47.288Z,86.85
2018-01-15T01:22:14.754Z,91.05
2018-01-15T01:24:42.208Z,92.15
2018-01-15T01:27:09.668Z,97.43
2018-01-15T01:29:37.124Z,84.72
2018-01-15T01:32:04.599Z,79.70
2018-01-15T01:34:32.095Z,82.57
2018-01-15T01:36:59.557Z,81.70
2018-01-15T01:39:27.012Z,79.25
2018-01-15T01:41:54.498Z,75.45
2018-01-15T01:44:21.952Z,84.37
2018-01-15T01:46:49.414Z,77.78
2018-01-15T01:49:16.889Z,96.25
2018-01-15T01:51:44.340Z,79.15
2018-01-15T01:54:11.806Z,78.75
2018-01-15T01:56:39.292Z,82.68
2018-01-15T01:59:06.739Z,77.37
2018-01-15T02:01:34.184Z,91.15
2018-01-15T02:04:01.651Z,103.78
2018-01-15T02:06:29.118Z,98.50
2018-01-15T02:08:56.564Z,86.90
2018-01-15T02:11:24.028Z,83.35
2018-01-15T02:13:51.482Z,92.70
2018-01-15T02:16:18.947Z,95.75
2018-01-15T02:18:46.407Z,87.20
2018-01-15T02:21:13.870Z,93.72
2018-01-15T02:23:41.317Z,82.00
2018-01-15T02:26:08.795Z,91.20
2018-01-15T02:28:36.271Z,93.78
2018-01-15T02:31:03.753Z,93.60
2018-01-15T02:33:31.238Z,82.03
2018-01-15T02:35:58.706Z,81.00
2018-01-15T02:38:26.148Z,83.07
2018-01-15T02:40:53.623Z,87.43
2018-01-15T02:43:21.072Z,84.65
2018-01-15T02:45:48.531Z,94.45
2018-01-15T02:48:16.010Z,89.80
2018-01-15T02:50:43.486Z,83.05
2018-01-15T02:53:10.931Z,81.00
2018-01-15T02:55:38.395Z,81.18
2018-01-15T02:58:05.871Z,91.82
2018-01-15T03:00:33.338Z,92.32
2018-01-15T03:03:00.807Z,77.22
2018-01-15T03:05:28.271Z,79.18
2018-01-15T03:07:55.743Z,100.45
2018-01-15T03:10:23.222Z,97.60
2018-01-15T03:12:50.672Z,85.25
2018-01-15T03:15:18.138Z,92.00
2018-01-15T03:17:45.595Z,89.80
2018-01-15T03:20:13.043Z,81.82
2018-01-15T03:22:40.504Z,94.13
2018-01-15T03:25:07.991Z,82.72
2018-01-15T03:27:35.439Z,95.82
2018-01-15T03:30:02.902Z,74.68
2018-01-15T03:32:30.364Z,79.78
2018-01-15T03:34:57.831Z,85.00
2018-01-15T03:37:25.280Z,76.40
2018-01-15T03:39:52.740Z,86.32
2018-01-15T03:42:20.213Z,78.85
2018-01-15T03:44:47.687Z,93.18
2018-01-15T03:47:15.179Z,84.40
2018-01-15T03:49:42.626Z,71.82
2018-01-15T03:52:10.076Z,77.53
2018-01-15T03:54:37.555Z,89.97
2018-01-15T03:57:05.113Z,78.43
2018-01-15T03:59:32.564Z,84.95
2018-01-15T04:02:00.054Z,71.22
2018-01-15T04:04:27.507Z,77.40
2018-01-15T04:06:54.963Z,94.90
2018-01-15T04:09:22.432Z,78.85
2018-01-15T04:11:49.880Z,82.88
2018-01-15T04:14:17.324Z,79.35
2018-01-15T04:16:44.788Z,76.10
2018-01-15T04:19:12.254Z,88.07
2018-01-15T04:21:39.727Z,80.45
2018-01-15T04:24:07.197Z,71.22
2018-01-15T04:26:34.648Z,83.40
2018-01-15T04:29:02.099Z,84.45
2018-01-15T04:31:29.583Z,82.95
2018-01-15T04:33:57.033Z,68.78
2018-01-15T04:36:24.488Z,82.32
2018-01-15T04:38:51.948Z,73.45
2018-01-15T04:41:19.392Z,73.10
2018-01-15T04:43:46.859Z,82.35
2018-01-15T04:46:14.321Z,81.50
2018-01-15T04:48:41.787Z,83.07
2018-01-15T04:51:09.254Z,73.82
2018-01-15T04:53:36.743Z,96.55
2018-01-15T04:56:04.200Z,91.72
2018-01-15T04:58:31.658Z,78.28
2018-01-15T05:00:59.143Z,81.25
2018-01-15T05:03:26.596Z,83.43
2018-01-15T05:05:54.050Z,84.75
2018-01-15T05:08:21.477Z,79.70
2018-01-15T05:10:48.984Z,87.28
2018-01-15T05:13:16.436Z,105.63
2018-01-15T05:15:43.905Z,84.75
2018-01-15T05:18:11.370Z,93.68
2018-01-15T05:20:38.824Z,74.72
2018-01-15T05:23:06.288Z,93.50
2018-01-15T05:25:33.741Z,97.37
2018-01-15T05:28:01.204Z,89.75
2018-01-15T05:30:28.722Z,87.18
2018-01-15T05:32:56.168Z,82.57
2018-01-15T05:35:23.624Z,72.07
2018-01-15T05:37:51.087Z,81.22
2018-01-15T05:40:18.550Z,87.43
2018-01-15T05:42:46.008Z,87.95
2018-01-15T05:45:13.526Z,84.95
2018-01-15T05:47:40.998Z,79.70
2018-01-15T05:50:08.470Z,89.75
2018-01-15T05:52:35.975Z,85.30
2018-01-15T05:55:03.439Z,87.25
2018-01-15T05:57:30.907Z,88.95
2018-01-15T05:59:58.407Z,90.35
2018-01-15T06:02:25.902Z,91.03
2018-01-15T06:04:53.379Z,93.93
2018-01-15T06:07:20.865Z,84.65
2018-01-15T06:09:48.312Z,82.22
2018-01-15T06:12:15.764Z,95.82
2018-01-15T06:14:43.232Z,93.32
2018-01-15T06:17:10.686Z,88.95
2018-01-15T06:19:38.154Z,101.57
2018-01-15T06:22:05.646Z,81.70
2018-01-15T06:24:33.096Z,92.85
2018-01-15T06:27:00.559Z,98.05
2018-01-15T06:29:28.958Z,87.65
2018-01-15T06:31:56.466Z,95.43
2018-01-15T06:34:23.916Z,93.90
2018-01-15T06:36:51.402Z,87.05
2018-01-15T06:39:18.990Z,84.55
2018-01-15T06:41:46.460Z,87.95
2018-01-15T06:44:13.948Z,94.85
2018-01-15T06:46:41.404Z,84.82
2018-01-15T06:49:08.873Z,87.28
2018-01-15T06:51:36.324Z,96.50
2018-01-15T06:54:03.790Z,97.93
2018-01-15T06:56:31.252Z,86.32
2018-01-15T06:58:58.732Z,88.53
2018-01-15T07:01:26.195Z,84.80
2018-01-15T07:03:53.644Z,90.87
2018-01-15T07:06:21.113Z,88.43
2018-01-15T07:08:48.583Z,82.00
2018-01-15T07:11:16.030Z,91.00
2018-01-15T07:13:43.549Z,88.40
2018-01-15T07:16:10.962Z,87.03
2018-01-15T07:18:38.416Z,81.47
2018-01-15T07:21:05.894Z,89.13
2018-01-15T07:23:33.363Z,77.07
2018-01-15T07:26:00.958Z,80.97
2018-01-15T07:28:28.426Z,86.65
2018-01-15T07:30:55.876Z,73.07
2018-01-15T07:33:23.403Z,74.90
2018-01-15T07:35:50.868Z,76.90
2018-01-15T07:38:18.323Z,79.47
2018-01-15T07:40:45.807Z,81.78
2018-01-15T07:43:13.271Z,84.87
2018-01-15T07:45:40.728Z,79.45
2018-01-15T07:48:08.210Z,101.62
2018-01-15T07:50:35.676Z,87.22
2018-01-15T07:53:03.135Z,85.47
2018-01-15T07:55:30.664Z,92.10
2018-01-15T07:57:58.139Z,86.05
2018-01-15T08:00:25.584Z,95.40
2018-01-15T08:02:53.071Z,92.12
2018-01-15T08:05:20.528Z,76.03
2018-01-15T08:07:47.993Z,94.22
2018-01-15T08:10:15.473Z,86.60
2018-01-15T08:12:42.956Z,83.05
2018-01-15T08:15:10.512Z,84.30
2018-01-15T08:17:37.976Z,83.93
2018-01-15T08:20:05.409Z,95.55
2018-01-15T08:22:32.930Z,76.35
2018-01-15T08:25:00.406Z,69.93
2018-01-15T08:27:27.883Z,80.18
2018-01-15T08:29:55.369Z,80.35
2018-01-15T08:32:22.821Z,76.87
2018-01-15T08:34:50.271Z,93.65
2018-01-15T08:37:17.755Z,74.40
2018-01-15T08:39:45.222Z,81.20
2018-01-15T08:42:12.682Z,83.68
2018-01-15T08:44:40.148Z,77.20
2018-01-15T08:47:07.615Z,83.60
2018-01-15T08:49:35.060Z,79.28
2018-01-15T08:52:02.546Z,71.35
2018-01-15T08:54:29.995Z,73.72
2018-01-15T08:56:57.460Z,70.93
2018-01-15T08:59:24.920Z,79.40
2018-01-15T09:01:52.374Z,84.35
2018-01-15T09:04:19.850Z,71.82
2018-01-15T09:06:47.304Z,79.80
2018-01-15T09:09:14.814Z,70.40
2018-01-15T09:11:42.295Z,74.53
2018-01-15T09:14:09.742Z,68.32
2018-01-15T09:16:37.232Z,82.88
2018-01-15T09:19:04.701Z,81.25
2018-01-15T09:21:32.167Z,76.00
2018-01-15T09:23:59.641Z,65.30
2018-01-15T09:26:27.366Z,74.35
2018-01-15T09:28:54.834Z,68.10
2018-01-15T09:31:22.331Z,65.90
2018-01-15T09:33:49.785Z,60.30
2018-01-15T09:36:17.261Z,61.53
2018-01-15T09:38:44.729Z,62.50
2018-01-15T09:41:12.224Z,62.22
2018-01-15T09:43:39.689Z,74.75
2018-01-15T09:46:07.214Z,70.55
2018-01-15T09:48:34.843Z,64.53
2018-01-15T09:51:02.277Z,65.32
2018-01-15T09:53:29.790Z,54.40
2018-01-15T09:55:57.237Z,57.13
2018-01-15T09:58:24.740Z,57.17
2018-01-15T10:00:52.241Z,59.65
2018-01-15T10:03:19.734Z,69.82
2018-01-15T10:05:47.200Z,54.50
2018-01-15T10:08:14.665Z,54.65
2018-01-15T10:10:42.117Z,64.22
2018-01-15T10:13:09.594Z,60.17
2018-01-15T10:15:37.048Z,65.60
2018-01-15T10:18:04.811Z,54.22
2018-01-15T10:20:32.306Z,58.92
2018-01-15T10:23:00.094Z,55.97
2018-01-15T10:25:27.574Z,52.85
2018-01-15T10:27:55.079Z,54.63
2018-01-15T10:30:22.574Z,57.95
2018-01-15T10:32:50.034Z,57.65
2018-01-15T10:35:17.519Z,54.80
2018-01-15T10:37:45.186Z,57.00
2018-01-15T10:40:12.660Z,48.63
2018-01-15T10:42:40.151Z,71.78
2018-01-15T10:45:07.627Z,56.03
2018-01-15T10:47:35.084Z,61.50
2018-01-15T10:50:03.459Z,52.60
2018-01-15T10:52:30.918Z,52.85
2018-01-15T10:54:58.405Z,73.80
2018-01-15T10:57:25.876Z,48.53
2018-01-15T10:59:53.330Z,55.05
2018-01-15T11:02:20.784Z,53.47
2018-01-15T11:04:48.278Z,45.78
2018-01-15T11:07:15.728Z,52.25
2018-01-15T11:09:43.192Z,48.40
2018-01-15T11:12:10.682Z,56.20
2018-01-15T11:14:38.150Z,59.90
2018-01-15T11:17:05.604Z,58.78
2018-01-15T11:19:33.092Z,49.15
2018-01-15T11:22:00.564Z,57.97
2018-01-15T11:24:28.018Z,46.30
2018-01-15T11:26:55.487Z,46.88
2018-01-15T11:29:22.958Z,56.47
2018-01-15T11:31:50.416Z,47.05
2018-01-15T11:34:17.888Z,52.47
2018-01-15T11:36:45.360Z,48.97
2018-01-15T11:39:12.815Z,47.55
2018-01-15T11:41:40.287Z,45.88
2018-01-15T11:44:07.749Z,54.58
2018-01-15T11:46:35.204Z,55.75
2018-01-15T11:49:02.674Z,46.92
2018-01-15T11:51:30.127Z,53.38
2018-01-15T11:53:57.610Z,46.67
2018-01-15T11:56:25.107Z,58.87
2018-01-15T11:58:52.576Z,52.83
2018-01-15T12:01:20.054Z,58.95
2018-01-15T12:03:47.524Z,50.75
2018-01-15T12:06:15.011Z,49.95
2018-01-15T12:08:42.475Z,47.33
2018-01-15T12:11:09.966Z,48.40
2018-01-15T12:13:37.447Z,49.13
2018-01-15T12:16:04.918Z,51.53
2018-01-15T12:18:32.383Z,51.87
2018-01-15T12:20:59.836Z,51.20
2018-01-15T12:23:27.319Z,48.45
2018-01-15T12:25:54.784Z,67.53
2018-01-15T12:28:22.267Z,50.22
2018-01-15T12:30:49.755Z,48.50
2018-01-15T12:33:17.237Z,56.53
2018-01-15T12:35:44.684Z,52.67
2018-01-15T12:38:12.144Z,50.03
2018-01-15T12:40:39.634Z,67.20
2018-01-15T12:43:07.098Z,53.77
2018-01-15T12:45:34.557Z,52.13
2018-01-15T12:48:02.842Z,47.80
2018-01-15T12:50:30.302Z,51.93
2018-01-15T12:52:57.766Z,45.00
2018-01-15T12:55:25.243Z,45.97
2018-01-15T12:57:52.692Z,45.10
2018-01-15T13:00:20.140Z,51.67
2018-01-15T13:02:47.605Z,49.47
2018-01-15T13:05:15.075Z,50.30
2018-01-15T13:07:54.371Z,52.33
2018-01-15T13:10:21.823Z,49.00
2018-01-15T13:12:49.264Z,45.37
2018-01-15T13:15:16.747Z,48.83
2018-01-15T13:17:44.191Z,50.67
2018-01-15T13:20:11.641Z,47.40
2018-01-15T13:22:39.115Z,53.40
2018-01-15T13:25:06.587Z,66.53
2018-01-15T13:27:34.046Z,46.07
2018-01-15T13:30:01.532Z,46.80
2018-01-15T13:32:29.139Z,64.90
2018-01-15T13:34:56.607Z,45.00
2018-01-15T13:37:24.079Z,52.23
2018-01-15T13:39:51.533Z,47.50
2018-01-15T13:42:19.002Z,54.37
2018-01-15T13:44:46.464Z,51.33
2018-01-15T13:47:13.958Z,43.45
2018-01-15T13:49:41.410Z,50.43
2018-01-15T13:52:08.890Z,48.40
2018-01-15T13:54:36.354Z,46.47
2018-01-15T13:57:03.801Z,52.93
2018-01-15T13:59:31.282Z,55.73
2018-01-15T14:01:58.741Z,46.57
2018-01-15T14:04:26.217Z,49.93
2018-01-15T14:06:53.698Z,59.73
2018-01-15T14:09:21.145Z,56.67
2018-01-15T14:11:48.592Z,80.47
2018-01-15T14:14:16.071Z,69.03
2018-01-15T14:16:43.514Z,70.10
2018-01-15T14:19:10.960Z,67.83
2018-01-15T14:21:38.445Z,71.22
2018-01-15T14:24:05.889Z,75.63
2018-01-15T14:26:33.340Z,78.40
2018-01-15T14:29:00.912Z,70.05
2018-01-15T14:31:28.382Z,74.80
2018-01-15T14:33:55.832Z,62.70
2018-01-15T14:36:23.299Z,81.07
2018-01-15T14:38:50.752Z,81.25
2018-01-15T14:41:18.204Z,75.30
2018-01-15T14:43:45.672Z,81.53
2018-01-15T14:46:13.134Z,69.37
2018-01-15T14:48:40.595Z,71.53
2018-01-15T14:51:08.083Z,77.18
2018-01-15T14:53:35.532Z,77.35
2018-01-15T14:56:02.983Z,78.03
2018-01-15T14:58:30.447Z,82.12
2018-01-15T15:00:57.918Z,80.57
2018-01-15T15:03:25.368Z,81.30
2018-01-15T15:05:52.851Z,78.72
2018-01-15T15:08:20.330Z,72.60
2018-01-15T15:10:47.821Z,73.85
2018-01-15T15:13:15.314Z,85.38
2018-01-15T15:15:42.766Z,88.07
2018-01-15T15:18:10.232Z,77.12
2018-01-15T15:20:37.684Z,71.05
2018-01-15T15:23:05.144Z,69.28
2018-01-15T15:25:32.612Z,73.97
2018-01-15T15:28:00.081Z,92.88
2018-01-15T15:30:27.550Z,69.43
2018-01-15T15:32:55.035Z,77.45
2018-01-15T15:35:22.492Z,74.40
2018-01-15T15:37:49.966Z,78.28
2018-01-15T15:40:17.439Z,72.30
2018-01-15T15:42:44.907Z,68.90
2018-01-15T15:45:12.363Z,73.30
2018-01-15T15:47:39.831Z,64.80
2018-01-15T15:50:07.315Z,62.88
2018-01-15T15:52:34.809Z,62.00
2018-01-15T15:55:02.310Z,62.60
2018-01-15T15:57:29.782Z,67.15
2018-01-15T15:59:57.247Z,63.35
2018-01-15T16:02:24.713Z,59.00
2018-01-15T16:04:52.189Z,52.50
2018-01-15T16:07:19.661Z,61.40
2018-01-15T16:09:47.138Z,50.38
2018-01-15T16:12:14.597Z,54.55
2018-01-15T16:14:42.082Z,62.15
2018-01-15T16:17:09.563Z,71.57
2018-01-15T16:19:37.019Z,57.08
2018-01-15T16:22:16.062Z,52.25
2018-01-15T16:24:43.538Z,79.78
2018-01-15T16:27:11.010Z,55.20
2018-01-15T16:29:38.491Z,55.65
2018-01-15T16:32:05.963Z,52.65
2018-01-15T16:34:33.415Z,52.85
2018-01-15T16:37:00.907Z,53.60
2018-01-15T16:39:28.376Z,57.28
2018-01-15T16:41:55.851Z,55.67
2018-01-15T16:44:23.319Z,54.85
2018-01-15T16:46:50.867Z,57.85
2018-01-15T16:49:18.332Z,55.72
2018-01-15T16:51:45.814Z,65.72
2018-01-15T16:54:13.295Z,52.10
2018-01-15T16:56:40.767Z,63.17
2018-01-15T16:59:08.228Z,50.65
2018-01-15T17:01:35.715Z,49.13
2018-01-15T17:04:03.202Z,52.25
2018-01-15T17:06:30.672Z,56.33
2018-01-15T17:08:58.159Z,44.50
2018-01-15T17:11:25.617Z,47.17
2018-01-15T17:13:53.124Z,50.05
2018-01-15T17:16:20.695Z,47.08
2018-01-15T17:18:48.162Z,53.05
2018-01-15T17:21:15.651Z,46.80
2018-01-15T17:23:43.113Z,40.10
2018-01-15T17:26:10.563Z,43.67
2018-01-15T17:28:38.050Z,37.60
2018-01-15T17:31:05.516Z,41.25
2018-01-15T17:33:32.973Z,41.55
2018-01-15T17:36:00.467Z,43.58
2018-01-15T17:38:27.930Z,51.25
2018-01-15T17:40:55.392Z,41.55
2018-01-15T17:43:22.821Z,44.15
2018-01-15T17:45:50.391Z,40.08
2018-01-15T17:48:17.870Z,46.22
2018-01-15T17:50:45.390Z,41.92
2018-01-15T17:53:12.866Z,42.53
2018-01-15T17:55:40.324Z,50.78
2018-01-15T17:58:07.832Z,37.55
2018-01-15T18:00:35.324Z,70.55
2018-01-15T18:03:02.806Z,42.67
2018-01-15T18:05:30.276Z,43.00
2018-01-15T18:07:57.738Z,43.38
2018-01-15T18:10:25.201Z,48.80
2018-01-15T18:12:52.687Z,36.15
2018-01-15T18:15:20.188Z,43.93
2018-01-15T18:17:47.624Z,48.47
2018-01-15T18:20:15.088Z,39.40
2018-01-15T18:22:42.546Z,39.10
2018-01-15T18:25:10.031Z,41.63
2018-01-15T18:27:37.514Z,44.03
2018-01-15T18:30:04.969Z,43.33
2018-01-15T18:32:32.438Z,40.35
2018-01-15T18:34:59.983Z,43.03
2018-01-15T18:37:27.454Z,39.90
2018-01-15T18:39:54.930Z,37.47
2018-01-15T18:42:22.411Z,43.27
2018-01-15T18:44:49.872Z,46.78
2018-01-15T18:47:17.352Z,46.42
2018-01-15T18:49:44.837Z,41.07
2018-01-15T18:52:12.284Z,51.90
2018-01-15T18:54:39.752Z,63.60
2018-01-15T18:57:07.215Z,46.70
2018-01-15T18:59:34.672Z,49.30
2018-01-15T19:02:02.151Z,46.03
2018-01-15T19:04:29.622Z,53.53
2018-01-15T19:06:57.064Z,43.80
2018-01-15T19:09:24.560Z,51.05
2018-01-15T19:11:52.037Z,48.97
2018-01-15T19:14:19.493Z,53.47
2018-01-15T19:16:46.966Z,58.40
2018-01-15T19:19:14.417Z,52.95
2018-01-15T19:21:41.885Z,53.17
2018-01-15T19:24:09.366Z,50.30
2018-01-15T19:26:36.845Z,52.58
2018-01-15T19:29:04.308Z,62.42
2018-01-15T19:31:31.780Z,55.83
2018-01-15T19:33:59.249Z,38.67
2018-01-15T19:36:27.584Z,45.12
2018-01-15T19:38:55.097Z,58.17
2018-01-15T19:41:36.838Z,47.40
2018-01-15T19:44:09.862Z,45.63
2018-01-15T19:46:42.950Z,39.33
2018-01-15T19:49:15.986Z,35.63
2018-01-15T19:51:49.035Z,39.40
2018-01-15T19:54:22.145Z,38.63
2018-01-15T19:56:55.182Z,33.63
2018-01-15T19:59:28.188Z,32.92
2018-01-15T20:02:01.400Z,34.95
2018-01-15T20:04:34.467Z,36.20
2018-01-15T20:07:07.520Z,36.22
2018-01-15T20:09:40.505Z,31.67
2018-01-15T20:12:07.965Z,34.38
2018-01-15T20:14:35.433Z,28.10
2018-01-15T20:17:02.919Z,31.42
2018-01-15T20:19:30.380Z,32.45
2018-01-15T20:21:57.840Z,30.73
2018-01-15T20:24:25.335Z,29.15
2018-01-15T20:26:52.823Z,31.00
2018-01-15T20:29:20.295Z,28.60
2018-01-15T20:31:47.805Z,26.77
2018-01-15T20:34:15.292Z,29.20
2018-01-15T20:36:42.781Z,29.65
2018-01-15T20:39:10.277Z,37.83
2018-01-15T20:41:37.767Z,30.37
2018-01-15T20:44:05.256Z,30.27
2018-01-15T20:46:32.731Z,26.95
2018-01-15T20:49:00.218Z,33.17
2018-01-15T20:51:27.693Z,26.87
2018-01-15T20:53:55.210Z,23.42
2018-01-15T20:56:22.652Z,27.55
2018-01-15T20:58:50.190Z,38.03
2018-01-15T21:01:17.630Z,36.65
2018-01-15T21:03:45.110Z,23.23
2018-01-15T21:06:12.571Z,21.75
2018-01-15T21:08:40.062Z,23.75
2018-01-15T21:11:07.542Z,22.55
2018-01-15T21:13:35.023Z,22.87
2018-01-15T21:16:02.519Z,36.90
2018-01-15T21:18:30.002Z,21.42
2018-01-15T21:20:57.459Z,24.85
2018-01-15T21:23:24.947Z,23.17
2018-01-15T21:25:52.435Z,20.05
2018-01-15T21:28:19.915Z,25.98
2018-01-15T21:30:47.397Z,18.90
2018-01-15T21:33:14.863Z,25.02
2018-01-15T21:35:42.331Z,18.80
2018-01-15T21:38:09.822Z,21.37
2018-01-15T21:40:37.302Z,20.15
2018-01-15T21:43:04.764Z,22.33
2018-01-15T21:45:32.254Z,30.65
2018-01-15T21:47:59.727Z,24.87
2018-01-15T21:50:27.215Z,19.20
2018-01-15T21:52:54.685Z,14.70
2018-01-15T21:55:22.162Z,29.27
2018-01-15T21:57:49.620Z,23.02
2018-01-15T22:00:17.115Z,39.60
2018-01-15T22:02:44.586Z,44.28
2018-01-15T22:05:12.063Z,27.33
2018-01-15T22:07:39.528Z,27.65
2018-01-15T22:10:07.000Z,27.75
2018-01-15T22:12:34.478Z,24.90
2018-01-15T22:15:01.971Z,20.73
2018-01-15T22:17:29.456Z,45.80
2018-01-15T22:19:56.917Z,33.40
2018-01-15T22:22:24.387Z,23.23
2018-01-15T22:24:51.855Z,16.20
2018-01-15T22:27:19.330Z,13.40
2018-01-15T22:29:46.804Z,17.20
2018-01-15T22:32:14.256Z,23.55
2018-01-15T22:34:41.726Z,22.77
2018-01-15T22:37:09.210Z,11.90
2018-01-15T22:39:36.678Z,14.35
2018-01-15T22:42:04.147Z,14.63
2018-01-15T22:44:31.630Z,19.70
2018-01-15T22:46:59.095Z,17.60
2018-01-15T22:49:26.556Z,15.45
2018-01-15T22:51:54.024Z,30.40
2018-01-15T22:54:21.480Z,41.83
2018-01-15T22:56:48.936Z,15.00
2018-01-15T22:59:16.419Z,25.15
2018-01-15T23:01:43.890Z,10.52
2018-01-15T23:04:11.359Z,11.12
2018-01-15T23:06:38.820Z,20.60
2018-01-15T23:09:06.272Z,15.20
2018-01-15T23:11:33.727Z,8.30
2018-01-15T23:14:01.207Z,9.52
2018-01-15T23:16:28.682Z,14.63
2018-01-15T23:18:56.151Z,15.13
2018-01-15T23:21:23.632Z,16.52
2018-01-15T23:23:51.084Z,25.35
2018-01-15T23:26:18.548Z,30.98
2018-01-15T23:28:46.019Z,18.35
2018-01-15T23:31:13.505Z,18.58
2018-01-15T23:33:40.976Z,29.15
2018-01-15T23:36:08.447Z,13.73
2018-01-15T23:38:35.896Z,23.25
2018-01-15T23:41:03.376Z,10.27
2018-01-15T23:43:30.828Z,10.70
2018-01-15T23:45:58.275Z,6.90
2018-01-15T23:48:25.731Z,9.45
2018-01-15T23:50:53.200Z,9.73
2018-01-15T23:53:20.652Z,9.57
2018-01-15T23:55:48.099Z,8.43
2018-01-15T23:58:15.558Z,7.82
